createdAt,value
2023-03-10T00:00:00.426Z,3.39
2023-03-10T00:05:02.944Z,3.48
2023-03-10T00:10:04.711Z,3.73
2023-03-10T00:15:08.233Z,4.05
2023-03-10T00:20:12.110Z,3.80
2023-03-10T00:25:13.576Z,4.55
2023-03-10T00:30:15.177Z,3.76
2023-03-10T00:35:16.811Z,3.75
2023-03-10T00:40:18.588Z,3.76
2023-03-10T00:45:20.036Z,4.26
2023-03-10T00:50:22.986Z,4.29
2023-03-10T00:55:24.433Z,3.86
2023-03-10T01:00:26.070Z,3.97
2023-03-10T01:05:29.006Z,3.88
2023-03-10T01:10:30.496Z,4.09
2023-03-10T01:15:31.963Z,4.44
2023-03-10T01:20:35.095Z,4.25
2023-03-10T01:25:36.556Z,5.65
2023-03-10T01:30:39.675Z,5.36
2023-03-10T01:35:42.173Z,5.89
2023-03-10T01:40:47.699Z,5.73
2023-03-10T01:45:52.162Z,4.90
2023-03-10T01:50:57.125Z,5.18
2023-03-10T01:56:02.680Z,5.82
2023-03-10T02:01:06.787Z,5.39
2023-03-10T02:06:16.757Z,5.28
2023-03-10T02:11:20.059Z,5.50
2023-03-10T02:16:22.267Z,6.21
2023-03-10T02:21:34.288Z,6.98
2023-03-10T02:26:43.192Z,7.02
2023-03-10T02:31:45.554Z,6.85
2023-03-10T02:36:47.161Z,6.58
2023-03-10T02:41:49.028Z,6.89
2023-03-10T02:46:53.361Z,7.01
2023-03-10T02:51:58.593Z,6.64
2023-03-10T02:57:00.141Z,6.90
2023-03-10T03:02:02.238Z,7.15
2023-03-10T03:07:03.821Z,6.98
2023-03-10T03:12:06.956Z,7.06
2023-03-10T03:17:08.379Z,7.01
2023-03-10T03:22:10.317Z,7.08
2023-03-10T03:27:11.944Z,6.88
2023-03-10T03:32:13.525Z,6.98
2023-03-10T03:37:15.686Z,6.79
2023-03-10T03:42:17.567Z,7.08
2023-03-10T03:47:25.230Z,6.77
2023-03-10T03:52:27.076Z,6.86
2023-03-10T03:57:30.158Z,6.85
2023-03-10T04:02:31.833Z,6.76
2023-03-10T04:07:34.063Z,6.60
2023-03-10T04:12:37.409Z,6.83
2023-03-10T04:17:39.644Z,6.50
2023-03-10T04:22:41.521Z,6.38
2023-03-10T04:27:44.700Z,6.40
2023-03-10T04:32:49.131Z,6.54
2023-03-10T04:37:51.856Z,6.78
2023-03-10T04:42:54.103Z,6.58
2023-03-10T04:47:55.666Z,6.88
2023-03-10T04:52:57.352Z,7.40
2023-03-10T04:58:02.973Z,7.36
2023-03-10T05:03:05.032Z,7.48
2023-03-10T05:08:07.017Z,7.88
2023-03-10T05:13:12.768Z,7.57
2023-03-10T05:18:15.539Z,7.89
2023-03-10T05:23:17.121Z,7.69
2023-03-10T05:28:18.757Z,7.63
2023-03-10T05:33:20.317Z,7.69
2023-03-10T05:38:22.283Z,7.68
2023-03-10T05:43:24.345Z,7.76
2023-03-10T05:48:26.650Z,8.17
2023-03-10T05:53:29.343Z,8.15
2023-03-10T05:58:30.928Z,8.20
2023-03-10T06:03:34.193Z,8.33
2023-03-10T06:08:36.036Z,8.34
2023-03-10T06:13:37.556Z,7.79
2023-03-10T06:18:39.133Z,8.09
2023-03-10T06:23:41.132Z,8.23
2023-03-10T06:28:45.865Z,8.69
2023-03-10T06:33:47.735Z,8.38
2023-03-10T06:38:49.754Z,8.69
2023-03-10T06:43:51.177Z,9.05
2023-03-10T06:48:52.630Z,9.04
2023-03-10T06:53:55.119Z,9.08
2023-03-10T06:58:56.574Z,9.10
2023-03-10T07:03:59.086Z,9.21
2023-03-10T07:09:00.826Z,9.04
2023-03-10T07:14:02.264Z,9.26
2023-03-10T07:19:03.706Z,9.25
2023-03-10T07:24:05.468Z,9.32
2023-03-10T07:29:07.020Z,9.33
2023-03-10T07:34:08.451Z,9.61
2023-03-10T07:39:09.907Z,9.78
2023-03-10T07:44:11.382Z,9.77
2023-03-10T07:49:12.888Z,9.88
2023-03-10T07:54:14.327Z,9.32
2023-03-10T07:59:15.762Z,9.80
2023-03-10T08:04:17.554Z,9.98
2023-03-10T08:09:22.556Z,10.01
2023-03-10T08:14:24.388Z,9.96
2023-03-10T08:19:26.654Z,10.14
2023-03-10T08:24:28.163Z,10.34
2023-03-10T08:29:29.603Z,10.53
2023-03-10T08:34:35.380Z,10.81
2023-03-10T08:39:36.887Z,10.88
2023-03-10T08:44:39.584Z,11.18
2023-03-10T08:49:44.402Z,11.25
2023-03-10T08:54:46.692Z,11.49
2023-03-10T08:59:48.150Z,11.54
2023-03-10T09:04:50.714Z,11.33
2023-03-10T09:09:52.158Z,11.72
2023-03-10T09:14:53.862Z,11.84
2023-03-10T09:19:55.364Z,12.11
2023-03-10T09:24:58.779Z,12.30
2023-03-10T09:30:47.599Z,12.45
2023-03-10T09:36:05.880Z,12.65
2023-03-10T09:41:28.716Z,12.72
2023-03-10T09:46:42.473Z,12.36
2023-03-10T09:51:48.012Z,12.77
2023-03-10T09:56:49.451Z,12.80
2023-03-10T10:01:51.525Z,12.63
2023-03-10T10:06:55.151Z,12.90
2023-03-10T10:11:56.655Z,12.73
2023-03-10T10:17:24.794Z,12.80
2023-03-10T10:22:34.478Z,12.66
2023-03-10T10:27:37.359Z,12.84
2023-03-10T10:32:56.378Z,12.82
2023-03-10T10:38:11.185Z,12.81
2023-03-10T10:43:17.484Z,12.75
2023-03-10T10:48:36.660Z,12.91
2023-03-10T10:53:42.162Z,13.03
2023-03-10T10:59:19.835Z,13.16
2023-03-10T11:04:23.073Z,13.30
2023-03-10T11:09:24.504Z,13.50
2023-03-10T11:14:52.529Z,13.44
2023-03-10T11:20:01.956Z,13.53
2023-03-10T11:25:15.454Z,13.52
2023-03-10T11:30:31.701Z,13.62
2023-03-10T11:35:46.381Z,13.61
2023-03-10T11:40:56.362Z,13.46
2023-03-10T11:46:04.159Z,13.47
2023-03-10T11:51:06.157Z,13.64
2023-03-10T11:56:11.219Z,13.86
2023-03-10T12:01:28.552Z,13.75
2023-03-10T12:06:38.680Z,13.87
2023-03-10T12:11:40.260Z,14.09
2023-03-10T12:16:42.524Z,13.96
2023-03-10T12:21:44.110Z,13.84
2023-03-10T12:26:45.487Z,13.70
2023-03-10T12:31:53.824Z,13.59
2023-03-10T12:37:04.701Z,13.77
2023-03-10T12:42:27.487Z,13.73
2023-03-10T12:47:43.028Z,13.62
2023-03-10T12:52:54.028Z,13.53
2023-03-10T12:58:13.582Z,13.57
2023-03-10T13:03:24.880Z,13.67
2023-03-10T13:08:47.479Z,13.98
2023-03-10T13:13:52.604Z,14.23
2023-03-10T13:18:54.739Z,14.13
2023-03-10T13:23:58.222Z,13.94
2023-03-10T13:29:02.841Z,13.61
2023-03-10T13:34:20.229Z,13.64
2023-03-10T13:39:27.448Z,13.57
2023-03-10T13:44:37.397Z,13.49
2023-03-10T13:49:38.922Z,13.41
2023-03-10T13:54:42.160Z,13.28
2023-03-10T13:59:43.798Z,13.36
2023-03-10T14:04:50.804Z,13.21
2023-03-10T14:10:04.478Z,13.38
2023-03-10T14:15:24.713Z,13.12
2023-03-10T14:20:31.506Z,12.77
2023-03-10T14:25:33.228Z,11.90
2023-03-10T14:30:34.740Z,10.43
2023-03-10T14:35:36.138Z,10.10
2023-03-10T14:40:43.484Z,10.03
2023-03-10T14:45:46.689Z,10.04
2023-03-10T14:50:48.623Z,10.21
2023-03-10T14:55:53.101Z,9.95
2023-03-10T15:00:54.721Z,10.07
2023-03-10T15:05:56.099Z,10.07
2023-03-10T15:10:57.775Z,9.77
2023-03-10T15:15:59.288Z,10.01
2023-03-10T15:21:02.594Z,10.25
2023-03-10T15:26:09.511Z,10.29
2023-03-10T15:31:11.202Z,10.72
2023-03-10T15:36:12.683Z,10.57
2023-03-10T15:41:14.194Z,10.66
2023-03-10T15:46:15.903Z,11.09
2023-03-10T15:51:18.036Z,10.99
2023-03-10T15:56:19.495Z,11.14
2023-03-10T16:01:21.306Z,10.81
2023-03-10T16:06:27.435Z,10.77
2023-03-10T16:11:28.980Z,10.70
2023-03-10T16:16:30.404Z,10.71
2023-03-10T16:21:31.953Z,10.49
2023-03-10T16:26:33.307Z,10.48
2023-03-10T16:31:34.884Z,10.30
2023-03-10T16:36:36.843Z,10.39
2023-03-10T16:41:39.308Z,10.20
2023-03-10T16:46:41.086Z,10.10
2023-03-10T16:51:45.265Z,9.80
2023-03-10T16:56:49.356Z,9.83
2023-03-10T17:01:51.464Z,9.75
2023-03-10T17:06:52.966Z,9.62
2023-03-10T17:11:55.500Z,9.66
2023-03-10T17:16:57.221Z,9.53
2023-03-10T17:21:58.758Z,9.56
2023-03-10T17:27:00.290Z,9.42
2023-03-10T17:38:15.545Z,9.11
2023-03-10T17:43:32.877Z,9.05
2023-03-10T17:48:35.882Z,9.02
2023-03-10T17:53:37.341Z,8.97
2023-03-10T17:58:39.218Z,8.89
2023-03-10T18:03:41.416Z,8.81
2023-03-10T18:08:42.905Z,8.84
2023-03-10T18:13:44.666Z,8.81
2023-03-10T18:18:46.639Z,8.84
2023-03-10T18:23:49.502Z,8.72
2023-03-10T18:28:51.566Z,8.71
2023-03-10T18:33:53.461Z,8.64
2023-03-10T18:38:55.205Z,8.58
2023-03-10T18:43:56.720Z,8.57
2023-03-10T18:48:58.329Z,8.56
2023-03-10T18:53:59.812Z,8.60
2023-03-10T18:59:01.234Z,8.60
2023-03-10T19:04:03.276Z,8.53
2023-03-10T19:09:08.234Z,8.52
2023-03-10T19:14:09.701Z,8.49
2023-03-10T19:19:11.161Z,8.58
2023-03-10T19:24:12.634Z,8.59
2023-03-10T19:29:14.067Z,8.61
2023-03-10T19:34:15.515Z,8.62
2023-03-10T19:39:17.021Z,8.59
2023-03-10T19:44:18.481Z,8.62
2023-03-10T19:49:20.066Z,8.72
2023-03-10T19:54:21.531Z,8.64
2023-03-10T19:59:23.004Z,8.60
2023-03-10T20:04:24.534Z,8.54
2023-03-10T20:09:26.108Z,8.42
2023-03-10T20:14:28.057Z,8.43
2023-03-10T20:19:29.593Z,8.36
2023-03-10T20:24:31.103Z,8.34
2023-03-10T20:29:34.463Z,8.36
2023-03-10T20:34:36.119Z,8.30
2023-03-10T20:39:37.684Z,8.21
2023-03-10T20:44:40.080Z,8.13
2023-03-10T20:49:41.558Z,8.13
2023-03-10T20:54:42.998Z,7.97
2023-03-10T20:59:44.458Z,7.85
2023-03-10T21:04:47.137Z,7.72
2023-03-10T21:09:51.779Z,7.61
2023-03-10T21:14:53.814Z,7.54
2023-03-10T21:19:55.398Z,7.44
2023-03-10T21:24:56.870Z,7.37
2023-03-10T21:29:59.120Z,7.23
2023-03-10T21:35:00.605Z,7.24
2023-03-10T21:40:02.062Z,7.09
2023-03-10T21:45:05.182Z,7.08
2023-03-10T21:50:07.187Z,7.01
2023-03-10T21:55:16.259Z,6.89
2023-03-10T22:00:20.063Z,6.99
2023-03-10T22:05:21.713Z,7.07
2023-03-10T22:10:23.167Z,6.90
2023-03-10T22:15:26.960Z,6.88
2023-03-10T22:20:28.471Z,6.82
2023-03-10T22:25:30.188Z,6.66
2023-03-10T22:30:31.771Z,6.88
2023-03-10T22:35:34.361Z,6.81
2023-03-10T22:40:35.860Z,6.45
2023-03-10T22:45:38.430Z,6.53
2023-03-10T22:50:43.531Z,6.30
2023-03-10T22:55:46.440Z,6.36
2023-03-10T23:00:48.341Z,6.61
2023-03-10T23:05:49.759Z,6.52
2023-03-10T23:10:51.829Z,6.49
2023-03-10T23:15:53.380Z,6.39
2023-03-10T23:20:55.400Z,6.14
2023-03-10T23:25:56.844Z,6.04
2023-03-10T23:31:00.406Z,5.36
2023-03-10T23:36:01.868Z,5.18
2023-03-10T23:41:03.409Z,4.46
2023-03-10T23:46:06.697Z,4.18
2023-03-10T23:51:13.455Z,4.15
2023-03-10T23:56:14.912Z,3.95
